createdAt,value
2019-02-09T00:02:21.277Z,52.07
2019-02-09T00:04:52.729Z,49.83
2019-02-09T00:07:24.132Z,56.50
2019-02-09T00:09:55.571Z,69.17
2019-02-09T00:12:27.282Z,61.17
2019-02-09T00:14:58.671Z,52.40
2019-02-09T00:17:30.123Z,61.57
2019-02-09T00:20:01.528Z,61.90
2019-02-09T00:22:33.033Z,65.67
2019-02-09T00:25:05.236Z,68.28
2019-02-09T00:27:36.628Z,70.67
2019-02-09T00:30:08.645Z,59.53
2019-02-09T00:32:40.309Z,60.67
2019-02-09T00:35:12.035Z,59.30
2019-02-09T00:37:43.555Z,59.53
2019-02-09T00:40:15.246Z,55.58
2019-02-09T00:42:46.791Z,67.13
2019-02-09T00:45:18.506Z,66.17
2019-02-09T00:47:50.000Z,61.17
2019-02-09T00:50:21.589Z,57.60
2019-02-09T00:52:53.070Z,51.37
2019-02-09T00:55:24.743Z,52.13
2019-02-09T00:57:56.514Z,44.23
2019-02-09T01:00:28.201Z,47.93
2019-02-09T01:02:59.714Z,41.77
2019-02-09T01:05:33.476Z,42.57
2019-02-09T01:08:05.084Z,44.23
2019-02-09T01:10:36.564Z,43.83
2019-02-09T01:13:08.073Z,41.57
2019-02-09T01:15:39.615Z,50.40
2019-02-09T01:18:11.117Z,58.43
2019-02-09T01:20:42.691Z,45.10
2019-02-09T01:23:14.180Z,54.20
2019-02-09T01:25:45.586Z,44.30
2019-02-09T01:28:17.080Z,42.30
2019-02-09T01:30:48.544Z,37.07
2019-02-09T01:33:20.056Z,38.35
2019-02-09T01:35:51.549Z,46.00
2019-02-09T01:38:23.167Z,41.23
2019-02-09T01:40:54.561Z,41.57
2019-02-09T01:43:25.953Z,42.10
2019-02-09T01:45:57.362Z,41.87
2019-02-09T01:48:28.763Z,46.00
2019-02-09T01:51:00.149Z,44.47
2019-02-09T01:53:31.560Z,44.97
2019-02-09T01:56:02.934Z,43.23
2019-02-09T01:58:34.384Z,41.73
2019-02-09T02:01:06.350Z,38.90
2019-02-09T02:03:37.819Z,43.70
2019-02-09T02:06:09.198Z,40.00
2019-02-09T02:08:40.576Z,45.50
2019-02-09T02:11:11.957Z,42.93
2019-02-09T02:13:43.338Z,52.20
2019-02-09T02:16:14.779Z,48.80
2019-02-09T02:18:47.170Z,47.70
2019-02-09T02:21:18.621Z,37.60
2019-02-09T02:23:50.247Z,40.53
2019-02-09T02:26:22.633Z,42.17
2019-02-09T02:28:54.029Z,57.40
2019-02-09T02:31:25.439Z,47.40
2019-02-09T02:33:56.838Z,43.60
2019-02-09T02:36:28.420Z,38.90
2019-02-09T02:38:59.908Z,37.93
2019-02-09T02:41:31.284Z,37.30
2019-02-09T02:44:02.677Z,38.07
2019-02-09T02:46:34.047Z,47.77
2019-02-09T02:49:05.534Z,50.50
2019-02-09T02:51:36.900Z,53.17
2019-02-09T02:54:08.295Z,56.97
2019-02-09T02:56:39.667Z,56.20
2019-02-09T02:59:11.158Z,56.50
2019-02-09T03:01:42.662Z,51.80
2019-02-09T03:04:14.210Z,47.90
2019-02-09T03:06:45.595Z,54.53
2019-02-09T03:09:17.016Z,54.80
2019-02-09T03:11:48.643Z,56.43
2019-02-09T03:14:20.053Z,54.13
2019-02-09T03:16:51.534Z,57.23
2019-02-09T03:19:23.047Z,58.30
2019-02-09T03:21:54.500Z,54.23
2019-02-09T03:24:26.036Z,55.93
2019-02-09T03:26:57.552Z,52.07
2019-02-09T03:29:29.023Z,53.87
2019-02-09T03:32:00.523Z,53.13
2019-02-09T03:34:32.007Z,48.90
2019-02-09T03:37:03.573Z,49.80
2019-02-09T03:39:35.009Z,50.30
2019-02-09T03:42:06.485Z,56.47
2019-02-09T03:44:38.091Z,54.50
2019-02-09T03:47:09.577Z,58.60
2019-02-09T03:49:41.104Z,44.77
2019-02-09T03:52:12.560Z,51.10
2019-02-09T03:54:44.019Z,51.13
2019-02-09T03:57:15.625Z,44.57
2019-02-09T03:59:47.025Z,45.77
2019-02-09T04:02:19.452Z,46.27
2019-02-09T04:04:50.905Z,54.33
2019-02-09T04:07:22.339Z,51.10
2019-02-09T04:09:53.725Z,51.43
2019-02-09T04:12:25.118Z,61.42
2019-02-09T04:14:56.504Z,53.87
2019-02-09T04:17:27.908Z,47.03
2019-02-09T04:19:59.303Z,47.80
2019-02-09T04:22:30.674Z,50.63
2019-02-09T04:25:02.047Z,48.50
2019-02-09T04:27:33.507Z,51.27
2019-02-09T04:30:07.344Z,43.07
2019-02-09T04:32:38.737Z,40.90
2019-02-09T04:35:10.148Z,55.60
2019-02-09T04:37:41.783Z,53.90
2019-02-09T04:40:15.131Z,52.90
2019-02-09T04:42:46.501Z,51.23
2019-02-09T04:45:18.390Z,51.90
2019-02-09T04:47:49.776Z,50.17
2019-02-09T04:50:21.176Z,54.87
2019-02-09T04:52:52.600Z,63.20
2019-02-09T04:55:24.986Z,61.10
2019-02-09T04:57:56.739Z,47.63
2019-02-09T05:00:29.646Z,54.43
2019-02-09T05:03:01.131Z,55.93
2019-02-09T05:05:32.765Z,62.15
2019-02-09T05:08:04.252Z,53.77
2019-02-09T05:10:35.894Z,57.33
2019-02-09T05:13:07.379Z,57.70
2019-02-09T05:15:38.833Z,59.03
2019-02-09T05:18:10.240Z,55.93
2019-02-09T05:20:41.602Z,54.43
2019-02-09T05:23:13.000Z,58.83
2019-02-09T05:25:44.351Z,62.23
2019-02-09T05:28:15.759Z,60.10
2019-02-09T05:30:47.121Z,62.73
2019-02-09T05:33:18.512Z,59.53
2019-02-09T05:35:49.891Z,57.30
2019-02-09T05:38:21.373Z,59.93
2019-02-09T05:40:52.851Z,58.17
2019-02-09T05:43:24.327Z,57.00
2019-02-09T05:45:55.778Z,56.50
2019-02-09T05:48:27.410Z,58.50
2019-02-09T05:50:58.890Z,60.77
2019-02-09T05:53:30.391Z,58.30
2019-02-09T05:56:01.908Z,51.90
2019-02-09T05:58:33.395Z,53.10
2019-02-09T06:01:04.950Z,61.18
2019-02-09T06:03:36.368Z,55.17
2019-02-09T06:06:07.998Z,67.07
2019-02-09T06:08:39.404Z,59.73
2019-02-09T06:11:10.863Z,57.30
2019-02-09T06:13:42.316Z,55.80
2019-02-09T06:16:13.872Z,57.03
2019-02-09T06:18:45.379Z,54.60
2019-02-09T06:21:16.835Z,52.80
2019-02-09T06:23:48.492Z,54.77
2019-02-09T06:26:19.922Z,61.73
2019-02-09T06:28:51.365Z,57.07
2019-02-09T06:31:22.880Z,61.63
2019-02-09T06:33:54.336Z,71.50
2019-02-09T06:36:25.981Z,57.33
2019-02-09T06:38:57.396Z,66.72
2019-02-09T06:41:28.959Z,70.07
2019-02-09T06:44:00.385Z,66.13
2019-02-09T06:46:31.880Z,66.13
2019-02-09T06:49:03.317Z,59.27
2019-02-09T06:51:34.961Z,63.33
2019-02-09T06:54:06.456Z,77.60
2019-02-09T06:56:37.968Z,73.57
2019-02-09T06:59:09.469Z,63.40
2019-02-09T07:01:48.324Z,70.40
2019-02-09T07:04:14.061Z,59.77
2019-02-09T07:06:45.444Z,62.40
2019-02-09T07:09:16.820Z,62.03
2019-02-09T07:11:48.200Z,65.73
2019-02-09T07:14:19.596Z,56.97
2019-02-09T07:16:51.167Z,63.37
2019-02-09T07:19:22.562Z,62.30
2019-02-09T07:21:53.957Z,73.67
2019-02-09T07:24:25.343Z,62.87
2019-02-09T07:26:56.737Z,73.53
2019-02-09T07:29:28.120Z,68.63
2019-02-09T07:31:59.525Z,66.67
2019-02-09T07:34:30.983Z,70.77
2019-02-09T07:37:02.381Z,67.80
2019-02-09T07:39:33.768Z,68.30
2019-02-09T07:42:05.287Z,70.40
2019-02-09T07:44:36.677Z,74.30
2019-02-09T07:47:08.103Z,64.27
2019-02-09T07:49:39.477Z,65.10
2019-02-09T07:52:10.985Z,69.37
2019-02-09T07:54:42.374Z,69.43
2019-02-09T07:57:13.782Z,68.73
2019-02-09T07:59:45.164Z,66.43
2019-02-09T08:02:16.552Z,71.00
2019-02-09T08:04:47.931Z,67.37
2019-02-09T08:07:19.318Z,72.07
2019-02-09T08:09:50.684Z,71.27
2019-02-09T08:12:22.105Z,64.13
2019-02-09T08:14:55.376Z,70.53
2019-02-09T08:17:26.835Z,67.37
2019-02-09T08:19:58.287Z,74.67
2019-02-09T08:22:29.716Z,69.10
2019-02-09T08:25:01.165Z,66.40
2019-02-09T08:27:32.560Z,69.47
2019-02-09T08:30:04.757Z,69.77
2019-02-09T08:32:36.193Z,73.80
2019-02-09T08:35:08.193Z,76.00
2019-02-09T08:37:40.577Z,67.13
2019-02-09T08:40:12.620Z,70.63
2019-02-09T08:42:44.038Z,67.42
2019-02-09T08:45:17.350Z,66.37
2019-02-09T08:47:48.928Z,63.27
2019-02-09T08:50:25.705Z,61.10
2019-02-09T08:52:57.105Z,72.13
2019-02-09T08:55:28.699Z,62.70
2019-02-09T08:58:00.111Z,61.23
2019-02-09T09:00:32.230Z,61.43
2019-02-09T09:03:03.664Z,56.47
2019-02-09T09:05:35.218Z,58.27
2019-02-09T09:08:07.752Z,61.23
2019-02-09T09:10:39.228Z,63.00
2019-02-09T09:13:10.628Z,59.97
2019-02-09T09:15:44.446Z,57.63
2019-02-09T09:18:15.921Z,59.03
2019-02-09T09:20:50.254Z,58.27
2019-02-09T09:23:21.696Z,60.87
2019-02-09T09:25:53.142Z,56.37
2019-02-09T09:28:24.620Z,62.10
2019-02-09T09:30:56.007Z,60.07
2019-02-09T09:33:27.587Z,59.60
2019-02-09T09:35:59.132Z,59.27
2019-02-09T09:38:30.535Z,56.93
2019-02-09T09:41:02.001Z,50.77
2019-02-09T09:43:34.081Z,59.67
2019-02-09T09:46:06.127Z,51.83
2019-02-09T09:48:37.522Z,52.17
2019-02-09T09:51:09.087Z,56.17
2019-02-09T09:53:40.749Z,54.73
2019-02-09T09:56:12.325Z,58.17
2019-02-09T09:58:43.725Z,61.07
2019-02-09T10:01:15.130Z,58.85
2019-02-09T10:03:46.685Z,54.53
2019-02-09T10:06:18.099Z,56.80
2019-02-09T10:08:49.596Z,52.07
2019-02-09T10:11:21.073Z,52.77
2019-02-09T10:13:52.506Z,52.73
2019-02-09T10:16:23.900Z,53.33
2019-02-09T10:18:55.456Z,47.90
2019-02-09T10:21:26.836Z,51.30
2019-02-09T10:23:58.692Z,48.90
2019-02-09T10:26:30.160Z,45.93
2019-02-09T10:29:01.931Z,48.15
2019-02-09T10:31:33.389Z,54.33
2019-02-09T10:34:04.973Z,46.85
2019-02-09T10:36:36.347Z,51.68
2019-02-09T10:39:09.551Z,43.92
2019-02-09T10:41:41.041Z,54.65
2019-02-09T10:44:12.456Z,49.67
2019-02-09T10:46:44.000Z,43.33
2019-02-09T10:49:15.465Z,50.40
2019-02-09T10:51:46.954Z,52.15
2019-02-09T10:54:18.455Z,54.50
2019-02-09T10:56:49.928Z,52.70
2019-02-09T10:59:21.433Z,55.30
2019-02-09T11:01:52.845Z,51.10
2019-02-09T11:04:24.420Z,57.23
2019-02-09T11:06:55.822Z,55.80
2019-02-09T11:09:27.291Z,59.67
2019-02-09T11:11:58.705Z,54.50
2019-02-09T11:14:30.125Z,58.17
2019-02-09T11:17:01.499Z,58.20
2019-02-09T11:19:32.977Z,52.77
2019-02-09T11:22:04.926Z,55.20
2019-02-09T11:24:36.444Z,53.37
2019-02-09T11:27:07.893Z,47.53
2019-02-09T11:29:39.469Z,49.65
2019-02-09T11:32:11.175Z,48.10
2019-02-09T11:34:42.597Z,43.50
2019-02-09T11:37:14.100Z,47.27
2019-02-09T11:39:45.659Z,44.75
2019-02-09T11:42:17.666Z,47.73
2019-02-09T11:44:49.177Z,46.75
2019-02-09T11:47:20.579Z,46.50
2019-02-09T11:49:52.023Z,50.88
2019-02-09T11:52:23.397Z,42.15
2019-02-09T11:54:54.835Z,46.60
2019-02-09T11:57:26.239Z,48.65
2019-02-09T11:59:57.657Z,44.65
2019-02-09T12:02:29.170Z,45.70
2019-02-09T12:05:00.651Z,57.35
2019-02-09T12:07:32.187Z,54.03
2019-02-09T12:10:03.821Z,51.20
2019-02-09T12:12:35.276Z,47.13
2019-02-09T12:15:09.105Z,46.92
2019-02-09T12:17:40.513Z,47.95
2019-02-09T12:20:13.940Z,44.73
2019-02-09T12:22:45.473Z,43.00
2019-02-09T12:25:19.159Z,39.58
2019-02-09T12:27:50.551Z,40.58
2019-02-09T12:30:24.075Z,42.83
2019-02-09T12:32:55.845Z,41.18
2019-02-09T12:35:27.393Z,39.53
2019-02-09T12:37:58.922Z,40.03
2019-02-09T12:40:31.818Z,37.13
2019-02-09T12:43:04.290Z,36.10
2019-02-09T12:45:36.467Z,37.85
2019-02-09T12:48:08.100Z,39.48
2019-02-09T12:50:40.225Z,37.00
2019-02-09T12:53:11.889Z,37.88
2019-02-09T12:55:43.338Z,43.33
2019-02-09T12:58:14.900Z,38.38
2019-02-09T13:00:46.304Z,42.50
2019-02-09T13:03:30.697Z,39.88
2019-02-09T13:05:56.302Z,42.53
2019-02-09T13:08:27.723Z,37.58
2019-02-09T13:10:59.170Z,36.45
2019-02-09T13:13:30.627Z,34.63
2019-02-09T13:16:02.111Z,36.23
2019-02-09T13:18:33.582Z,38.67
2019-02-09T13:21:05.328Z,39.10
2019-02-09T13:23:36.728Z,44.23
2019-02-09T13:26:08.132Z,41.25
2019-02-09T13:28:39.586Z,39.45
2019-02-09T13:31:11.153Z,46.18
2019-02-09T13:33:42.612Z,44.40
2019-02-09T13:36:14.102Z,42.75
2019-02-09T13:38:45.726Z,42.53
2019-02-09T13:41:17.152Z,45.13
2019-02-09T13:43:48.679Z,45.67
2019-02-09T13:46:20.136Z,51.23
2019-02-09T13:48:51.607Z,53.53
2019-02-09T13:51:23.148Z,51.57
2019-02-09T13:53:54.633Z,48.10
2019-02-09T13:56:26.332Z,49.20
2019-02-09T13:58:57.765Z,50.13
2019-02-09T14:01:29.235Z,53.13
2019-02-09T14:04:00.741Z,47.63
2019-02-09T14:06:32.227Z,43.53
2019-02-09T14:09:04.900Z,47.87
2019-02-09T14:11:36.288Z,41.50
2019-02-09T14:14:07.791Z,43.03
2019-02-09T14:16:39.215Z,45.07
2019-02-09T14:19:10.732Z,37.57
2019-02-09T14:21:42.187Z,43.90
2019-02-09T14:24:13.645Z,40.77
2019-02-09T14:26:45.301Z,36.33
2019-02-09T14:29:17.970Z,40.80
2019-02-09T14:31:49.413Z,39.30
2019-02-09T14:34:20.807Z,42.77
2019-02-09T14:36:52.299Z,41.90
2019-02-09T14:39:23.776Z,40.40
2019-02-09T14:41:55.263Z,42.23
2019-02-09T14:44:26.755Z,37.17
2019-02-09T14:46:58.237Z,43.43
2019-02-09T14:49:29.770Z,39.15
2019-02-09T14:52:01.366Z,44.13
2019-02-09T14:54:32.894Z,43.53
2019-02-09T14:57:04.454Z,44.17
2019-02-09T14:59:35.971Z,44.35
2019-02-09T15:02:07.648Z,47.43
2019-02-09T15:04:39.113Z,43.47
2019-02-09T15:07:10.585Z,47.50
2019-02-09T15:09:42.038Z,44.30
2019-02-09T15:12:14.493Z,43.00
2019-02-09T15:14:45.920Z,42.55
2019-02-09T15:17:17.514Z,47.17
2019-02-09T15:19:49.005Z,54.03
2019-02-09T15:22:20.520Z,44.77
2019-02-09T15:24:52.149Z,53.37
2019-02-09T15:27:23.625Z,50.40
2019-02-09T15:29:55.132Z,53.37
2019-02-09T15:32:26.552Z,54.67
2019-02-09T15:34:58.045Z,49.77
2019-02-09T15:37:29.565Z,60.13
2019-02-09T15:40:00.992Z,52.83
2019-02-09T15:42:32.512Z,52.43
2019-02-09T15:45:04.365Z,57.13
2019-02-09T15:47:35.839Z,61.77
2019-02-09T15:50:07.819Z,53.97
2019-02-09T15:52:39.322Z,53.63
2019-02-09T15:55:12.410Z,60.40
2019-02-09T15:57:43.861Z,59.63
2019-02-09T16:00:20.389Z,54.93
2019-02-09T16:02:52.758Z,60.87
2019-02-09T16:05:24.514Z,64.13
2019-02-09T16:07:56.378Z,64.87
2019-02-09T16:10:27.830Z,58.83
2019-02-09T16:12:59.305Z,64.57
2019-02-09T16:15:30.931Z,62.17
2019-02-09T16:18:02.383Z,58.53
2019-02-09T16:20:33.848Z,56.33
2019-02-09T16:23:05.841Z,59.63
2019-02-09T16:25:37.385Z,57.90
2019-02-09T16:28:09.126Z,63.27
2019-02-09T16:30:40.607Z,61.77
2019-02-09T16:33:12.077Z,64.90
2019-02-09T16:35:43.509Z,62.33
2019-02-09T16:38:15.043Z,67.03
2019-02-09T16:40:46.590Z,65.30
2019-02-09T16:43:18.148Z,65.43
2019-02-09T16:45:49.637Z,66.23
2019-02-09T16:48:21.122Z,73.90
2019-02-09T16:50:52.598Z,77.37
2019-02-09T16:53:24.138Z,61.10
2019-02-09T16:55:55.672Z,70.13
2019-02-09T16:58:27.249Z,122.22
2019-02-09T17:00:58.719Z,69.00
2019-02-09T17:03:30.321Z,64.33
2019-02-09T17:06:01.885Z,66.63
2019-02-09T17:08:33.368Z,70.43
2019-02-09T17:11:04.798Z,63.67
2019-02-09T17:13:36.332Z,72.40
2019-02-09T17:16:07.767Z,65.23
2019-02-09T17:18:39.339Z,68.50
2019-02-09T17:21:10.765Z,69.10
2019-02-09T17:23:42.252Z,70.03
2019-02-09T17:26:15.091Z,69.25
2019-02-09T17:28:46.533Z,66.20
2019-02-09T17:31:17.956Z,68.10
2019-02-09T17:33:49.365Z,94.03
2019-02-09T17:36:20.814Z,161.47
2019-02-09T17:38:52.242Z,68.40
2019-02-09T17:41:23.759Z,61.97
2019-02-09T17:43:55.279Z,62.60
2019-02-09T17:46:26.743Z,57.33
2019-02-09T17:48:58.238Z,55.37
2019-02-09T17:51:29.660Z,45.47
2019-02-09T17:54:01.144Z,49.77
2019-02-09T17:56:32.625Z,48.67
2019-02-09T17:59:04.244Z,58.97
2019-02-09T18:01:35.709Z,59.00
2019-02-09T18:04:07.230Z,56.60
2019-02-09T18:06:38.779Z,48.45
2019-02-09T18:09:10.263Z,46.43
2019-02-09T18:11:41.880Z,42.43
2019-02-09T18:14:13.417Z,49.00
2019-02-09T18:16:44.869Z,47.40
2019-02-09T18:19:16.388Z,55.50
2019-02-09T18:21:47.868Z,52.50
2019-02-09T18:24:19.409Z,57.10
2019-02-09T18:26:50.992Z,57.83
2019-02-09T18:29:22.421Z,59.57
2019-02-09T18:31:53.852Z,62.43
2019-02-09T18:34:25.355Z,55.63
2019-02-09T18:36:56.783Z,57.37
2019-02-09T18:39:28.278Z,59.73
2019-02-09T18:41:59.773Z,61.63
2019-02-09T18:44:31.783Z,63.93
2019-02-09T18:47:03.208Z,77.63
2019-02-09T18:49:34.697Z,74.92
2019-02-09T18:52:06.131Z,72.60
2019-02-09T18:54:37.660Z,75.73
2019-02-09T18:57:09.204Z,71.17
2019-02-09T18:59:40.715Z,127.13
2019-02-09T19:02:12.225Z,102.27
2019-02-09T19:04:43.651Z,74.30
2019-02-09T19:07:15.150Z,74.40
2019-02-09T19:09:46.658Z,72.08
2019-02-09T19:12:18.112Z,74.27
2019-02-09T19:14:49.540Z,67.17
2019-02-09T19:17:21.947Z,69.10
2019-02-09T19:19:53.551Z,67.73
2019-02-09T19:22:24.982Z,66.57
2019-02-09T19:24:56.802Z,54.93
2019-02-09T19:27:28.381Z,62.33
2019-02-09T19:29:59.850Z,60.83
2019-02-09T19:32:31.410Z,59.63
2019-02-09T19:35:03.254Z,61.47
2019-02-09T19:37:34.821Z,59.33
2019-02-09T19:40:07.806Z,61.13
2019-02-09T19:42:39.368Z,63.00
2019-02-09T19:45:21.812Z,68.40
2019-02-09T19:47:53.507Z,62.70
2019-02-09T19:50:25.018Z,64.73
2019-02-09T19:52:56.552Z,131.53
2019-02-09T19:55:29.133Z,232.50
2019-02-09T19:58:00.938Z,73.10
2019-02-09T20:00:37.017Z,67.10
2019-02-09T20:03:08.777Z,66.27
2019-02-09T20:05:40.236Z,66.03
2019-02-09T20:08:12.131Z,69.97
2019-02-09T20:10:43.781Z,62.27
2019-02-09T20:13:15.580Z,61.50
2019-02-09T20:16:04.820Z,60.63
2019-02-09T20:18:54.427Z,67.67
2019-02-09T20:21:44.568Z,72.50
2019-02-09T20:24:34.599Z,75.92
2019-02-09T20:27:24.545Z,62.17
2019-02-09T20:30:39.185Z,68.50
2019-02-09T20:33:28.508Z,69.97
2019-02-09T20:36:18.423Z,71.43
2019-02-09T20:39:09.742Z,70.92
2019-02-09T20:42:00.030Z,71.77
2019-02-09T20:44:50.108Z,76.10
2019-02-09T20:47:47.464Z,80.73
2019-02-09T20:50:31.031Z,82.07
2019-02-09T20:53:21.476Z,242.37
2019-02-09T20:56:11.016Z,85.00
2019-02-09T20:59:00.712Z,75.83
2019-02-09T21:01:49.828Z,71.57
2019-02-09T21:04:39.669Z,62.47
2019-02-09T21:07:29.050Z,71.87
2019-02-09T21:10:26.737Z,69.47
2019-02-09T21:13:16.670Z,76.97
2019-02-09T21:16:06.953Z,73.10
2019-02-09T21:18:56.444Z,73.73
2019-02-09T21:21:46.288Z,65.77
2019-02-09T21:24:35.861Z,76.17
2019-02-09T21:27:26.152Z,73.00
2019-02-09T21:30:18.430Z,73.33
2019-02-09T21:33:08.263Z,77.03
2019-02-09T21:35:58.144Z,68.83
2019-02-09T21:38:49.057Z,66.20
2019-02-09T21:41:39.216Z,73.60
2019-02-09T21:44:29.352Z,66.70
2019-02-09T21:47:19.286Z,79.53
2019-02-09T21:50:12.412Z,83.87
2019-02-09T21:53:01.867Z,82.63
2019-02-09T21:55:51.414Z,90.35
2019-02-09T21:58:40.869Z,79.93
2019-02-09T22:01:29.915Z,83.33
2019-02-09T22:04:19.592Z,77.40
2019-02-09T22:07:09.813Z,88.37
2019-02-09T22:09:59.364Z,83.20
2019-02-09T22:12:48.976Z,86.35
2019-02-09T22:15:39.179Z,81.37
2019-02-09T22:18:28.870Z,85.03
2019-02-09T22:21:19.301Z,82.73
2019-02-09T22:24:09.210Z,77.13
2019-02-09T22:26:59.421Z,81.17
2019-02-09T22:29:49.878Z,80.13
2019-02-09T22:32:39.975Z,82.33
2019-02-09T22:35:30.494Z,77.90
2019-02-09T22:38:20.676Z,76.53
2019-02-09T22:41:10.637Z,82.30
2019-02-09T22:44:00.757Z,84.60
2019-02-09T22:46:50.894Z,77.87
2019-02-09T22:49:40.272Z,85.50
2019-02-09T22:52:30.340Z,76.97
2019-02-09T22:55:20.495Z,83.63
2019-02-09T22:58:09.585Z,68.97
2019-02-09T23:01:17.264Z,80.67
2019-02-09T23:04:35.291Z,78.57
2019-02-09T23:07:28.082Z,82.77
2019-02-09T23:10:17.872Z,83.40
2019-02-09T23:13:07.502Z,80.37
2019-02-09T23:15:57.244Z,80.73
2019-02-09T23:18:46.650Z,87.63
2019-02-09T23:21:36.609Z,73.30
2019-02-09T23:24:25.761Z,77.00
2019-02-09T23:27:15.714Z,72.20
2019-02-09T23:30:07.432Z,70.97
2019-02-09T23:32:56.987Z,79.33
2019-02-09T23:35:47.025Z,80.53
2019-02-09T23:38:37.077Z,73.33
2019-02-09T23:41:27.238Z,76.80
2019-02-09T23:44:17.452Z,85.60
2019-02-09T23:47:06.817Z,82.33
2019-02-09T23:49:56.358Z,80.03
2019-02-09T23:52:45.926Z,77.87
2019-02-09T23:55:35.827Z,83.67
2019-02-09T23:58:25.140Z,80.20
